Time;durP1;ratioP1;P1;durP2;ratioP2;P2;SDS_P1;SDS_P2;PMS_P1;PMS_P2;Temp;Humidity;BMP_temperature;BMP_pressure;BME280_temperature;BME280_humidity;BME280_pressure;Samples;Min_cycle;Max_cycle;Signal;HPM_P1;HPM_P2
2023/09/12 00:01:07;;;;;;;13.15;8.65;;;20.10;99.90;;;;;;5057138;28;20037;-70
2023/09/12 00:03:34;;;;;;;11.00;8.15;;;20.10;99.90;;;;;;5046536;28;20136;-69
2023/09/12 00:06:01;;;;;;;11.55;8.70;;;20.10;99.90;;;;;;5051845;28;20107;-69
2023/09/12 00:08:27;;;;;;;11.52;7.88;;;20.10;99.90;;;;;;5044997;28;20106;-69
2023/09/12 00:11:04;;;;;;;11.27;8.38;;;20.10;99.90;;;;;;5052671;28;20033;-69
2023/09/12 00:13:31;;;;;;;11.23;7.75;;;20.10;99.90;;;;;;5038600;28;20349;-68
2023/09/12 00:15:57;;;;;;;9.93;7.50;;;20.10;99.90;;;;;;5054195;28;20036;-68
2023/09/12 00:18:23;;;;;;;9.30;7.90;;;20.10;99.90;;;;;;5048265;28;20463;-70
2023/09/12 00:20:50;;;;;;;11.07;8.13;;;20.10;99.90;;;;;;5048347;28;20036;-69
2023/09/12 00:23:16;;;;;;;13.98;7.90;;;20.10;99.90;;;;;;5046864;28;20477;-69
2023/09/12 00:25:42;;;;;;;11.13;8.13;;;20.10;99.90;;;;;;5037335;28;20047;-69
2023/09/12 00:28:08;;;;;;;10.85;7.88;;;20.10;99.90;;;;;;5049064;28;20032;-69
2023/09/12 00:30:33;;;;;;;9.60;8.25;;;20.10;99.90;;;;;;5051099;28;20060;-69
2023/09/12 00:32:59;;;;;;;8.73;7.40;;;20.10;99.90;;;;;;5040240;28;20036;-69
2023/09/12 00:35:25;;;;;;;9.43;7.80;;;20.00;99.90;;;;;;5045662;28;20044;-69
2023/09/12 00:37:51;;;;;;;11.27;8.02;;;20.10;99.90;;;;;;5050974;28;20037;-69
2023/09/12 00:40:16;;;;;;;10.95;8.35;;;20.00;99.90;;;;;;5048944;28;20028;-69
2023/09/12 00:42:42;;;;;;;10.95;7.68;;;20.00;99.90;;;;;;5040002;28;20487;-69
2023/09/12 00:45:08;;;;;;;9.52;8.27;;;20.00;99.90;;;;;;5034774;28;20124;-69
2023/09/12 00:47:36;;;;;;;12.07;7.82;;;20.00;99.90;;;;;;5048411;28;20375;-69
2023/09/12 00:50:04;;;;;;;10.77;7.68;;;20.00;99.90;;;;;;5042597;28;20033;-69
2023/09/12 00:52:33;;;;;;;8.65;7.68;;;20.00;99.90;;;;;;5040219;28;20481;-69
2023/09/12 00:54:58;;;;;;;9.23;7.55;;;19.90;99.90;;;;;;5034765;28;20029;-69
2023/09/12 00:57:26;;;;;;;8.48;6.95;;;20.00;99.90;;;;;;5042277;28;20481;-69
2023/09/12 00:59:53;;;;;;;8.90;7.63;;;20.00;99.90;;;;;;5048125;28;20572;-69
2023/09/12 01:02:19;;;;;;;10.55;7.38;;;19.90;99.90;;;;;;5050536;28;20483;-69
2023/09/12 01:04:47;;;;;;;12.35;7.97;;;19.90;99.90;;;;;;5047056;28;20044;-68
2023/09/12 01:07:13;;;;;;;11.00;7.63;;;20.00;99.90;;;;;;5043562;28;20041;-69
2023/09/12 01:09:40;;;;;;;9.65;7.32;;;19.90;99.90;;;;;;5011746;28;20401;-69
2023/09/12 01:12:06;;;;;;;10.13;6.82;;;19.90;99.90;;;;;;5040904;28;20065;-68
2023/09/12 01:14:32;;;;;;;8.98;7.22;;;19.90;99.90;;;;;;5038293;28;20151;-69
2023/09/12 01:16:59;;;;;;;11.25;7.75;;;19.90;99.90;;;;;;5041971;28;20029;-69
2023/09/12 01:19:25;;;;;;;8.60;6.80;;;19.90;99.90;;;;;;5034616;28;20042;-69
2023/09/12 01:22:09;;;;;;;8.65;7.05;;;19.90;99.90;;;;;;5038668;28;20443;-69
2023/09/12 01:24:56;;;;;;;8.02;6.68;;;19.90;99.90;;;;;;5030271;28;20033;-69
2023/09/12 01:27:27;;;;;;;8.38;6.55;;;19.90;99.90;;;;;;5046795;28;20040;-69
2023/09/12 01:29:59;;;;;;;10.90;7.45;;;19.90;99.90;;;;;;5034676;28;20080;-69
2023/09/12 01:32:27;;;;;;;10.02;6.97;;;19.80;99.90;;;;;;5034630;28;20497;-69
2023/09/12 01:34:53;;;;;;;9.13;7.22;;;19.80;99.90;;;;;;5046857;28;20048;-69
2023/09/12 01:37:19;;;;;;;10.85;7.18;;;19.80;99.90;;;;;;5038193;28;20029;-68
2023/09/12 01:39:44;;;;;;;7.00;6.30;;;19.80;99.90;;;;;;5049335;28;20036;-69
2023/09/12 01:42:15;;;;;;;8.65;6.97;;;19.70;99.90;;;;;;5047618;28;20444;-69
2023/09/12 01:44:44;;;;;;;12.38;7.65;;;19.70;99.90;;;;;;5038012;28;20029;-69
2023/09/12 01:47:11;;;;;;;12.15;7.45;;;19.70;99.90;;;;;;5039404;28;20039;-69
2023/09/12 01:49:40;;;;;;;8.35;6.72;;;19.70;99.90;;;;;;5048960;28;20025;-69
2023/09/12 01:52:07;;;;;;;8.85;7.38;;;19.60;99.90;;;;;;5049194;28;20043;-69
2023/09/12 01:54:37;;;;;;;10.95;7.80;;;19.60;99.90;;;;;;5037531;28;20035;-69
2023/09/12 01:57:04;;;;;;;10.05;7.30;;;19.60;99.90;;;;;;5047619;28;20504;-69
2023/09/12 01:59:30;;;;;;;9.85;7.68;;;19.60;99.90;;;;;;5037610;28;20029;-69
2023/09/12 02:01:55;;;;;;;9.05;7.43;;;19.60;99.90;;;;;;5042671;28;20576;-69
2023/09/12 02:04:21;;;;;;;7.85;6.80;;;19.50;99.90;;;;;;5037183;28;20154;-69
2023/09/12 02:06:47;;;;;;;9.18;7.07;;;19.50;99.90;;;;;;5047981;28;20501;-69
2023/09/12 02:09:13;;;;;;;10.70;8.18;;;19.50;99.90;;;;;;5051737;28;20033;-69
2023/09/12 02:11:39;;;;;;;7.82;7.13;;;19.40;99.90;;;;;;5053060;28;20037;-68
2023/09/12 02:14:05;;;;;;;10.35;7.82;;;19.40;99.90;;;;;;5041212;28;20048;-68
2023/09/12 02:16:31;;;;;;;10.52;7.95;;;19.40;99.90;;;;;;5037246;28;20598;-69
2023/09/12 02:18:57;;;;;;;11.80;8.68;;;19.40;99.90;;;;;;5036740;28;20551;-69
2023/09/12 02:21:23;;;;;;;8.77;7.47;;;19.40;99.90;;;;;;5037397;28;20021;-68
2023/09/12 02:23:49;;;;;;;11.02;8.32;;;19.40;99.90;;;;;;5037152;28;20496;-69
2023/09/12 02:26:14;;;;;;;8.00;7.20;;;19.40;99.90;;;;;;5046929;28;20603;-69
2023/09/12 02:28:40;;;;;;;9.25;7.07;;;19.40;99.90;;;;;;5050024;28;20056;-69
2023/09/12 02:31:12;;;;;;;9.55;7.38;;;19.40;99.90;;;;;;5039009;28;20078;-69
2023/09/12 02:33:39;;;;;;;13.20;8.00;;;19.40;99.90;;;;;;5037024;28;20032;-69
2023/09/12 02:36:05;;;;;;;9.75;7.55;;;19.40;99.90;;;;;;5038235;28;20060;-69
2023/09/12 02:38:32;;;;;;;12.88;7.55;;;19.40;99.90;;;;;;5054209;28;20112;-69
2023/09/12 02:40:58;;;;;;;9.23;7.85;;;19.40;99.90;;;;;;5045062;28;20033;-69
2023/09/12 02:43:24;;;;;;;16.27;7.82;;;19.40;99.90;;;;;;5049746;28;20028;-68
2023/09/12 02:45:49;;;;;;;12.55;8.18;;;19.40;99.90;;;;;;5036752;28;20039;-69
2023/09/12 02:48:15;;;;;;;9.25;7.55;;;19.40;99.90;;;;;;5048061;28;20033;-69
2023/09/12 02:50:41;;;;;;;11.38;7.60;;;19.30;99.90;;;;;;5046486;28;20031;-69
2023/09/12 02:53:07;;;;;;;10.18;7.72;;;19.30;99.90;;;;;;5044399;28;20032;-69
2023/09/12 02:55:33;;;;;;;9.73;8.00;;;19.20;99.90;;;;;;5046380;28;20033;-69
2023/09/12 02:57:59;;;;;;;10.57;8.13;;;19.20;99.90;;;;;;5036618;28;20056;-69
2023/09/12 03:00:25;;;;;;;12.65;8.30;;;19.20;99.90;;;;;;5037477;28;20052;-69
2023/09/12 03:02:51;;;;;;;11.45;8.90;;;19.20;99.90;;;;;;5039849;28;20029;-69
2023/09/12 03:05:16;;;;;;;12.95;9.70;;;19.10;99.90;;;;;;5038303;28;20409;-69
2023/09/12 03:07:42;;;;;;;12.77;9.15;;;19.10;99.90;;;;;;5035217;28;20401;-69
2023/09/12 03:10:08;;;;;;;15.57;10.43;;;19.10;99.90;;;;;;5047042;28;20059;-69
2023/09/12 03:12:36;;;;;;;13.45;9.73;;;19.10;99.90;;;;;;5039005;28;20127;-69
2023/09/12 03:15:03;;;;;;;11.63;9.07;;;19.10;99.90;;;;;;5039678;28;20342;-69
2023/09/12 03:17:29;;;;;;;12.38;8.50;;;19.10;99.90;;;;;;5045799;28;20025;-69
2023/09/12 03:19:54;;;;;;;11.30;8.25;;;19.10;99.90;;;;;;5024260;28;20513;-68
2023/09/12 03:22:20;;;;;;;10.77;8.48;;;19.10;99.90;;;;;;5036104;28;20035;-69
2023/09/12 03:24:47;;;;;;;13.50;7.88;;;19.10;99.90;;;;;;5039566;28;20124;-69
2023/09/12 03:27:13;;;;;;;11.02;7.78;;;19.10;99.90;;;;;;5036964;28;20416;-69
2023/09/12 03:29:39;;;;;;;10.82;8.38;;;19.10;99.90;;;;;;5035611;28;20035;-68
2023/09/12 03:32:05;;;;;;;8.77;7.88;;;19.10;99.90;;;;;;5033187;28;20504;-69
2023/09/12 03:34:31;;;;;;;9.32;7.93;;;19.10;99.90;;;;;;5047154;28;20071;-68
2023/09/12 03:36:56;;;;;;;10.70;8.15;;;19.10;99.90;;;;;;5056561;28;20033;-69
2023/09/12 03:39:22;;;;;;;9.55;8.00;;;19.10;99.90;;;;;;5038271;28;20039;-69
2023/09/12 03:41:48;;;;;;;12.55;8.05;;;19.10;99.90;;;;;;5040209;28;20528;-69
2023/09/12 03:44:14;;;;;;;11.02;7.95;;;19.10;99.90;;;;;;5053154;28;20028;-69
2023/09/12 03:46:40;;;;;;;8.55;7.55;;;19.10;99.90;;;;;;5045853;28;20455;-69
2023/09/12 03:49:05;;;;;;;12.32;8.80;;;19.10;99.90;;;;;;5045261;28;20060;-69
2023/09/12 03:51:31;;;;;;;10.48;8.57;;;19.10;99.90;;;;;;5049202;28;20029;-69
2023/09/12 03:53:57;;;;;;;9.60;8.25;;;19.00;99.90;;;;;;5041656;28;20082;-69
2023/09/12 03:56:23;;;;;;;11.02;7.68;;;19.00;99.90;;;;;;5035203;28;20708;-69
2023/09/12 03:58:49;;;;;;;11.05;8.38;;;19.00;99.90;;;;;;5043177;28;20029;-69
2023/09/12 04:01:15;;;;;;;9.75;8.52;;;18.90;99.90;;;;;;5036391;28;20492;-69
2023/09/12 04:03:41;;;;;;;15.43;8.77;;;18.90;99.90;;;;;;5043710;28;20020;-69
2023/09/12 04:06:07;;;;;;;10.95;8.10;;;18.90;99.90;;;;;;5045078;28;20033;-69
2023/09/12 04:08:33;;;;;;;10.20;7.85;;;18.90;99.90;;;;;;5036813;28;20021;-69
2023/09/12 04:10:59;;;;;;;9.10;8.10;;;18.90;99.90;;;;;;5035517;28;20807;-69
2023/09/12 04:13:25;;;;;;;10.68;7.80;;;18.90;99.90;;;;;;5035216;28;20060;-69
2023/09/12 04:15:50;;;;;;;13.63;8.57;;;18.80;99.90;;;;;;5044968;28;20028;-69
2023/09/12 04:18:16;;;;;;;11.63;8.38;;;18.90;99.90;;;;;;5027786;28;20098;-68
2023/09/12 04:20:42;;;;;;;11.02;8.18;;;18.80;99.90;;;;;;5035106;28;20025;-69
2023/09/12 04:23:08;;;;;;;11.15;7.88;;;18.90;99.90;;;;;;5034958;28;20029;-69
2023/09/12 04:25:34;;;;;;;13.82;8.20;;;18.90;99.90;;;;;;5035346;28;20514;-69
2023/09/12 04:28:00;;;;;;;11.23;8.27;;;18.90;99.90;;;;;;5038443;28;20110;-69
2023/09/12 04:30:26;;;;;;;10.00;8.10;;;18.90;99.90;;;;;;5042907;28;20116;-69
2023/09/12 04:32:53;;;;;;;9.82;7.85;;;18.90;99.90;;;;;;5033427;28;20037;-69
2023/09/12 04:35:19;;;;;;;9.85;7.45;;;19.00;99.90;;;;;;5033505;28;20033;-69
2023/09/12 04:37:47;;;;;;;8.85;7.43;;;19.00;99.90;;;;;;5035482;28;20064;-69
2023/09/12 04:40:14;;;;;;;8.65;7.38;;;19.00;99.90;;;;;;5035754;28;20462;-69
2023/09/12 04:42:40;;;;;;;9.07;7.75;;;19.00;99.90;;;;;;5034898;28;20094;-69
2023/09/12 04:45:06;;;;;;;10.32;7.18;;;19.00;99.90;;;;;;5041345;28;20044;-69
2023/09/12 04:47:32;;;;;;;10.45;7.53;;;19.00;99.90;;;;;;5030242;28;20029;-69
2023/09/12 04:49:58;;;;;;;8.98;7.07;;;19.00;99.90;;;;;;5044631;28;20036;-69
2023/09/12 04:52:24;;;;;;;9.57;6.70;;;18.90;99.90;;;;;;5034811;28;20090;-68
2023/09/12 04:54:49;;;;;;;8.57;6.78;;;18.90;99.90;;;;;;5038794;28;20040;-69
2023/09/12 04:57:15;;;;;;;12.35;7.03;;;18.90;99.90;;;;;;5042249;28;20124;-69
2023/09/12 04:59:41;;;;;;;10.02;6.95;;;18.90;99.90;;;;;;5037894;28;20035;-69
2023/09/12 05:02:07;;;;;;;8.05;6.38;;;18.80;99.90;;;;;;5036628;28;20033;-69
2023/09/12 05:04:33;;;;;;;9.45;6.90;;;18.80;99.90;;;;;;5044414;28;20033;-68
2023/09/12 05:06:59;;;;;;;8.90;6.85;;;18.80;99.90;;;;;;5023492;28;20039;-69
2023/09/12 05:09:24;;;;;;;9.80;7.10;;;18.80;99.90;;;;;;5036069;28;20203;-69
2023/09/12 05:11:50;;;;;;;11.45;7.28;;;18.80;99.90;;;;;;5030306;28;20715;-69
2023/09/12 05:14:16;;;;;;;11.65;7.25;;;18.80;99.90;;;;;;5038614;28;20564;-69
2023/09/12 05:16:42;;;;;;;8.20;7.00;;;18.80;99.90;;;;;;5044015;28;20028;-68
2023/09/12 05:19:08;;;;;;;8.05;6.70;;;18.80;99.90;;;;;;5046371;28;20416;-69
2023/09/12 05:21:34;;;;;;;9.63;7.07;;;18.80;99.90;;;;;;5037056;28;20021;-69
2023/09/12 05:24:00;;;;;;;7.90;6.32;;;18.80;99.90;;;;;;5026144;28;20051;-69
2023/09/12 05:26:26;;;;;;;11.30;6.82;;;18.90;99.90;;;;;;5038746;28;20075;-68
2023/09/12 05:28:52;;;;;;;9.52;7.47;;;18.80;99.90;;;;;;5059750;28;20068;-69
2023/09/12 05:31:18;;;;;;;9.77;7.05;;;18.90;99.90;;;;;;5037899;28;20077;-69
2023/09/12 05:33:44;;;;;;;8.30;7.07;;;18.90;99.90;;;;;;5052112;28;20037;-69
2023/09/12 05:36:09;;;;;;;8.93;7.13;;;18.90;99.90;;;;;;5049777;28;20078;-69
2023/09/12 05:38:35;;;;;;;10.00;7.50;;;19.00;99.90;;;;;;5044352;28;20025;-69
2023/09/12 05:41:01;;;;;;;9.63;7.38;;;19.00;99.90;;;;;;5051635;28;20108;-69
2023/09/12 05:43:28;;;;;;;11.45;7.55;;;19.00;99.90;;;;;;5038067;28;20495;-69
2023/09/12 05:45:54;;;;;;;7.78;6.78;;;19.10;99.90;;;;;;5041809;28;20082;-69
2023/09/12 05:48:20;;;;;;;9.70;7.55;;;19.20;99.90;;;;;;5038115;28;20044;-69
2023/09/12 05:50:46;;;;;;;9.48;7.50;;;19.20;99.90;;;;;;5038007;28;20059;-69
2023/09/12 05:53:11;;;;;;;13.73;7.53;;;19.30;99.90;;;;;;5037855;28;20067;-69
2023/09/12 05:55:37;;;;;;;13.55;7.28;;;19.30;99.90;;;;;;5040809;28;20209;-69
2023/09/12 05:58:05;;;;;;;11.35;7.70;;;19.30;99.90;;;;;;5040202;28;20036;-69
2023/09/12 06:00:32;;;;;;;10.18;7.45;;;19.40;99.90;;;;;;5038306;28;20025;-69
2023/09/12 06:02:58;;;;;;;11.43;7.15;;;19.40;99.90;;;;;;5051448;28;20033;-69
2023/09/12 06:05:23;;;;;;;11.63;6.72;;;19.50;99.90;;;;;;5052975;28;20090;-68
2023/09/12 06:07:49;;;;;;;8.45;7.30;;;19.50;99.90;;;;;;5049827;28;20029;-69
2023/09/12 06:10:15;;;;;;;8.18;7.13;;;19.50;99.90;;;;;;5057459;28;20033;-69
2023/09/12 06:12:40;;;;;;;11.13;7.85;;;19.60;99.90;;;;;;5037717;28;20033;-71
2023/09/12 06:15:07;;;;;;;9.40;7.43;;;19.60;99.90;;;;;;5047034;28;20029;-69
2023/09/12 06:17:32;;;;;;;10.20;7.07;;;19.70;99.90;;;;;;5046104;28;20033;-69
2023/09/12 06:19:58;;;;;;;14.88;7.60;;;19.70;99.90;;;;;;5053360;28;20106;-69
2023/09/12 06:22:24;;;;;;;10.40;7.45;;;19.80;99.90;;;;;;5047209;28;20137;-69
2023/09/12 06:24:50;;;;;;;10.00;7.32;;;19.80;99.90;;;;;;5047519;28;20566;-69
2023/09/12 06:27:18;;;;;;;11.80;8.32;;;19.90;99.90;;;;;;5038517;28;20033;-68
2023/09/12 06:29:48;;;;;;;10.27;7.72;;;19.90;99.90;;;;;;5037132;28;20055;-69
2023/09/12 06:32:18;;;;;;;11.07;7.85;;;19.90;99.90;;;;;;5052291;28;20036;-68
2023/09/12 06:34:44;;;;;;;10.77;7.70;;;20.00;99.90;;;;;;5046875;28;20029;-69
2023/09/12 06:37:13;;;;;;;8.80;7.30;;;20.10;99.90;;;;;;5048476;28;20037;-69
2023/09/12 06:39:39;;;;;;;9.32;7.57;;;20.20;99.90;;;;;;5051147;28;20053;-69
2023/09/12 06:42:05;;;;;;;11.52;7.97;;;20.20;99.90;;;;;;5047196;28;20052;-69
2023/09/12 06:44:31;;;;;;;9.60;7.00;;;20.30;99.90;;;;;;5046712;28;20021;-68
2023/09/12 06:46:57;;;;;;;10.50;7.22;;;20.50;99.90;;;;;;5046988;28;20032;-69
2023/09/12 06:49:23;;;;;;;11.18;7.45;;;20.60;99.90;;;;;;5050075;28;20037;-69
2023/09/12 06:51:48;;;;;;;8.43;6.78;;;20.60;99.90;;;;;;5046617;28;20036;-68
2023/09/12 06:54:15;;;;;;;11.35;7.35;;;20.80;99.90;;;;;;5050172;28;20029;-69
2023/09/12 06:56:42;;;;;;;13.00;7.43;;;20.80;99.90;;;;;;5048300;28;20048;-69
2023/09/12 06:59:08;;;;;;;11.48;7.15;;;21.00;99.90;;;;;;5050485;28;20093;-69
2023/09/12 07:01:34;;;;;;;11.68;6.97;;;21.20;99.90;;;;;;5046473;28;20119;-69
2023/09/12 07:04:00;;;;;;;11.23;7.55;;;21.40;99.90;;;;;;5046455;28;20033;-69
2023/09/12 07:06:26;;;;;;;10.50;6.35;;;21.40;99.90;;;;;;5051824;28;20032;-69
2023/09/12 07:08:52;;;;;;;12.18;6.68;;;21.50;99.90;;;;;;5049348;28;20032;-69
2023/09/12 07:11:19;;;;;;;10.43;7.43;;;21.70;99.90;;;;;;5044837;28;20041;-69
2023/09/12 07:13:45;;;;;;;10.57;7.22;;;22.00;99.60;;;;;;5048686;28;20645;-69
2023/09/12 07:16:11;;;;;;;13.25;7.00;;;22.30;99.10;;;;;;5045554;28;20029;-69
2023/09/12 07:18:38;;;;;;;9.45;6.47;;;22.40;98.50;;;;;;5047149;28;20024;-69
2023/09/12 07:21:05;;;;;;;14.73;7.30;;;22.50;98.50;;;;;;5045550;28;20040;-69
2023/09/12 07:23:32;;;;;;;11.07;7.18;;;22.50;98.20;;;;;;5049325;28;20560;-69
2023/09/12 07:25:58;;;;;;;16.60;7.50;;;22.60;98.20;;;;;;5046002;28;20041;-68
2023/09/12 07:28:25;;;;;;;18.65;8.68;;;22.60;97.90;;;;;;5057463;28;20097;-68
2023/09/12 07:30:51;;;;;;;14.18;7.93;;;22.70;97.70;;;;;;5051934;28;20033;-69
2023/09/12 07:33:17;;;;;;;19.48;8.18;;;22.80;97.60;;;;;;5049477;28;20512;-69
2023/09/12 07:35:43;;;;;;;18.17;8.98;;;22.90;97.40;;;;;;5048618;28;20028;-69
2023/09/12 07:38:09;;;;;;;13.05;7.10;;;23.00;97.30;;;;;;5047279;28;20036;-69
2023/09/12 07:40:34;;;;;;;13.90;7.80;;;23.00;97.20;;;;;;5048596;28;20051;-70
2023/09/12 07:43:00;;;;;;;15.30;7.45;;;23.10;97.10;;;;;;5052589;28;20048;-69
2023/09/12 07:45:27;;;;;;;18.10;8.02;;;23.20;97.00;;;;;;5045545;28;20037;-69
2023/09/12 07:47:53;;;;;;;10.85;7.45;;;23.20;97.10;;;;;;5054065;28;20038;-69
2023/09/12 07:50:18;;;;;;;18.55;7.45;;;23.30;96.70;;;;;;5054121;28;20052;-69
2023/09/12 07:52:44;;;;;;;10.48;7.03;;;23.30;96.80;;;;;;5050879;28;20112;-69
2023/09/12 07:55:10;;;;;;;13.82;8.45;;;23.40;96.70;;;;;;5052021;28;20504;-69
2023/09/12 07:57:36;;;;;;;19.25;7.88;;;23.50;96.60;;;;;;5045154;28;20025;-69
2023/09/12 08:00:09;;;;;;;11.00;7.32;;;23.50;96.70;;;;;;5042435;28;20079;-68
2023/09/12 08:02:37;;;;;;;10.05;6.80;;;23.60;96.70;;;;;;5040860;28;20500;-69
2023/09/12 08:05:04;;;;;;;22.77;8.20;;;23.70;96.70;;;;;;5047776;28;20152;-69
2023/09/12 08:07:30;;;;;;;19.85;8.02;;;23.80;96.20;;;;;;5050253;28;20025;-69
2023/09/12 08:09:57;;;;;;;13.45;7.03;;;23.90;96.00;;;;;;5055855;28;20037;-69
2023/09/12 08:12:25;;;;;;;13.35;7.65;;;23.90;96.40;;;;;;5045246;28;20501;-69
2023/09/12 08:14:52;;;;;;;17.48;8.70;;;24.00;96.70;;;;;;5052020;28;20798;-69
2023/09/12 08:17:18;;;;;;;15.90;7.50;;;24.10;96.60;;;;;;5050067;28;20037;-69
2023/09/12 08:19:44;;;;;;;17.58;7.20;;;24.10;96.70;;;;;;5043347;28;20532;-70
2023/09/12 08:22:10;;;;;;;17.48;7.80;;;24.20;96.30;;;;;;5050482;28;20227;-69
2023/09/12 08:24:37;;;;;;;13.52;7.97;;;24.30;96.00;;;;;;5038276;28;20540;-69
2023/09/12 08:27:04;;;;;;;13.50;7.10;;;24.40;95.90;;;;;;5045187;28;20032;-70
2023/09/12 08:29:31;;;;;;;22.45;7.70;;;24.40;96.00;;;;;;5044551;28;20467;-69
2023/09/12 08:31:56;;;;;;;17.90;7.50;;;24.50;95.50;;;;;;5035122;28;20576;-69
2023/09/12 08:34:22;;;;;;;15.60;6.93;;;24.60;95.40;;;;;;5044607;28;20071;-69
2023/09/12 08:36:48;;;;;;;15.57;7.10;;;24.60;95.60;;;;;;5053893;28;20041;-69
2023/09/12 08:39:16;;;;;;;18.88;8.27;;;24.70;95.80;;;;;;5044451;28;20068;-69
2023/09/12 08:41:42;;;;;;;16.50;7.35;;;24.80;95.70;;;;;;5054183;28;20033;-69
2023/09/12 08:44:09;;;;;;;13.13;7.00;;;24.80;95.70;;;;;;5055305;28;20036;-69
2023/09/12 08:46:36;;;;;;;16.38;7.18;;;24.90;95.70;;;;;;5058387;28;20492;-69
2023/09/12 08:49:06;;;;;;;17.13;7.72;;;25.10;95.80;;;;;;5050934;28;20553;-69
2023/09/12 08:51:32;;;;;;;20.05;7.63;;;25.20;95.30;;;;;;5047737;28;20542;-69
2023/09/12 08:53:58;;;;;;;14.55;7.65;;;25.30;94.90;;;;;;5055410;28;20037;-69
2023/09/12 08:56:24;;;;;;;23.38;7.57;;;25.50;94.90;;;;;;5052543;28;20032;-69
2023/09/12 08:58:51;;;;;;;20.10;7.95;;;25.60;94.70;;;;;;5051356;28;20039;-69
2023/09/12 09:01:19;;;;;;;15.05;7.28;;;25.70;94.40;;;;;;5051346;28;20041;-69
2023/09/12 09:03:45;;;;;;;12.40;7.22;;;26.00;94.10;;;;;;5051175;28;20037;-69
2023/09/12 09:06:12;;;;;;;14.48;7.88;;;26.10;93.80;;;;;;5059592;28;20055;-69
2023/09/12 09:08:39;;;;;;;14.63;7.63;;;26.20;93.50;;;;;;5058911;28;20143;-70
2023/09/12 09:11:10;;;;;;;15.93;8.10;;;26.20;93.60;;;;;;5053035;28;20397;-69
2023/09/12 09:13:36;;;;;;;19.88;7.30;;;26.30;93.40;;;;;;5054762;28;20553;-69
2023/09/12 09:16:16;;;;;;;14.40;7.10;;;26.30;93.30;;;;;;5050973;28;20174;-69
2023/09/12 09:18:55;;;;;;;18.05;7.82;;;26.40;93.40;;;;;;5057789;28;20493;-69
2023/09/12 09:21:26;;;;;;;15.85;7.18;;;26.40;93.10;;;;;;5052059;28;20021;-69
2023/09/12 09:23:54;;;;;;;14.23;7.07;;;26.40;92.80;;;;;;5068601;28;20490;-69
2023/09/12 09:26:20;;;;;;;11.70;7.40;;;26.60;92.90;;;;;;5051614;28;20029;-69
2023/09/12 09:29:02;;;;;;;17.35;7.53;;;26.70;92.90;;;;;;5055665;28;20116;-69
2023/09/12 09:31:28;;;;;;;19.30;7.13;;;26.80;92.80;;;;;;5059862;28;20583;-69
2023/09/12 09:33:54;;;;;;;12.38;6.18;;;26.90;92.60;;;;;;5055195;28;20120;-70
2023/09/12 09:36:20;;;;;;;12.80;6.32;;;27.00;91.80;;;;;;5050815;28;20029;-69
2023/09/12 09:38:46;;;;;;;12.48;6.60;;;27.00;92.00;;;;;;5055979;28;20185;-69
2023/09/12 09:41:12;;;;;;;13.57;6.53;;;27.00;92.20;;;;;;5050890;28;20059;-70
2023/09/12 09:43:38;;;;;;;11.65;6.40;;;27.20;91.80;;;;;;5052812;28;20120;-69
2023/09/12 09:46:03;;;;;;;18.10;6.20;;;27.30;91.50;;;;;;5051155;28;20060;-70
2023/09/12 09:48:32;;;;;;;13.20;5.80;;;27.40;91.10;;;;;;5039470;28;20028;-70
2023/09/12 09:51:04;;;;;;;9.98;5.60;;;27.50;90.50;;;;;;5054294;28;20129;-70
2023/09/12 09:53:32;;;;;;;12.25;5.50;;;27.50;89.70;;;;;;5042671;28;20059;-70
2023/09/12 09:56:27;;;;;;;8.70;5.43;;;27.70;88.90;;;;;;5047389;28;20041;-70
2023/09/12 09:58:55;;;;;;;16.08;4.68;;;27.80;88.40;;;;;;5018205;28;20040;-70
2023/09/12 10:01:27;;;;;;;11.77;4.93;;;27.80;86.90;;;;;;5051944;28;20036;-68
2023/09/12 10:04:00;;;;;;;6.00;4.43;;;27.90;85.90;;;;;;5041934;28;20064;-70
2023/09/12 10:06:28;;;;;;;11.90;4.93;;;28.00;85.90;;;;;;5030073;28;20120;-69
2023/09/12 10:08:56;;;;;;;10.20;3.45;;;28.30;84.80;;;;;;5047559;28;20021;-70
2023/09/12 10:11:31;;;;;;;8.93;3.20;;;28.60;83.00;;;;;;5047057;28;20776;-70
2023/09/12 10:13:58;;;;;;;;;;;28.90;80.20;;;;;;5048278;28;20037;-70
2023/09/12 10:16:30;;;;;;;5.63;3.70;;;29.00;79.50;;;;;;5053691;28;19962;-69
2023/09/12 10:19:03;;;;;;;6.00;3.55;;;29.00;78.60;;;;;;5044991;28;20037;-70
2023/09/12 10:21:34;;;;;;;9.55;3.70;;;29.30;79.90;;;;;;5039722;28;20062;-71
2023/09/12 10:24:02;;;;;;;6.65;3.65;;;29.60;77.10;;;;;;5046769;28;20035;-70
2023/09/12 10:26:30;;;;;;;6.13;3.67;;;29.90;77.00;;;;;;5050712;28;20033;-69
2023/09/12 10:28:57;;;;;;;7.78;3.60;;;30.20;75.70;;;;;;5047108;28;20554;-70
2023/09/12 10:31:24;;;;;;;5.57;3.75;;;30.30;75.90;;;;;;5046933;28;20028;-70
2023/09/12 10:33:50;;;;;;;9.18;4.47;;;30.20;75.80;;;;;;5036869;28;20044;-70
2023/09/12 10:36:18;;;;;;;8.40;3.88;;;30.00;76.20;;;;;;5048778;28;20029;-70
2023/09/12 10:38:46;;;;;;;10.73;4.60;;;29.90;76.60;;;;;;5046910;28;20483;-70
2023/09/12 10:41:16;;;;;;;5.95;4.30;;;29.80;77.60;;;;;;5047091;28;20040;-69
2023/09/12 10:43:47;;;;;;;10.85;4.20;;;29.80;78.30;;;;;;5046786;28;20025;-70
2023/09/12 10:46:13;;;;;;;8.48;4.00;;;29.90;78.80;;;;;;5047013;28;20077;-70
2023/09/12 10:48:42;;;;;;;9.68;3.85;;;29.90;77.20;;;;;;5046536;28;20029;-70
2023/09/12 10:51:09;;;;;;;6.65;3.88;;;29.90;76.40;;;;;;5046790;28;20397;-70
2023/09/12 10:53:35;;;;;;;5.25;3.97;;;30.00;77.40;;;;;;5046114;28;20525;-70
2023/09/12 10:56:16;;;;;;;6.03;3.63;;;29.90;75.80;;;;;;5046262;28;20074;-70
2023/09/12 10:59:12;;;;;;;9.85;3.97;;;29.80;75.80;;;;;;5046405;28;20118;-70
2023/09/12 11:01:46;;;;;;;6.13;3.45;;;29.50;76.60;;;;;;5036258;28;20049;-69
2023/09/12 11:04:23;;;;;;;7.22;3.88;;;29.50;77.50;;;;;;5052618;28;20087;-70
2023/09/12 11:06:50;;;;;;;4.22;3.53;;;29.40;77.20;;;;;;5046568;28;20048;-70
2023/09/12 11:09:19;;;;;;;6.25;3.80;;;29.30;78.40;;;;;;5047148;28;20119;-70
2023/09/12 11:12:01;;;;;;;5.78;3.63;;;29.20;78.70;;;;;;5046300;28;20045;-70
2023/09/12 11:14:27;;;;;;;5.57;3.72;;;29.10;78.30;;;;;;5028205;28;20865;-70
2023/09/12 11:17:08;;;;;;;7.47;3.50;;;29.20;76.80;;;;;;5047352;28;20127;-69
2023/09/12 11:19:45;;;;;;;5.20;2.83;;;29.20;77.30;;;;;;5041470;28;20029;-70
2023/09/12 11:22:27;;;;;;;4.05;2.40;;;29.20;77.20;;;;;;5045929;28;20547;-70
2023/09/12 11:24:55;;;;;;;7.53;2.88;;;29.30;75.40;;;;;;5045683;28;20036;-70
2023/09/12 11:27:25;;;;;;;7.30;2.83;;;29.30;74.30;;;;;;5046006;28;20037;-70
2023/09/12 11:29:51;;;;;;;4.65;3.00;;;29.40;74.70;;;;;;5053283;28;20035;-70
2023/09/12 11:32:27;;;;;;;4.20;2.75;;;29.40;76.50;;;;;;5046917;28;20408;-70
2023/09/12 11:34:53;;;;;;;4.47;2.85;;;29.40;74.90;;;;;;5045833;28;20159;-70
2023/09/12 11:37:24;;;;;;;2.78;2.50;;;29.40;75.30;;;;;;5045577;28;20025;-69
2023/09/12 11:39:52;;;;;;;5.60;2.42;;;29.50;74.70;;;;;;5040949;28;20060;-70
2023/09/12 11:42:18;;;;;;;3.92;2.53;;;29.50;74.90;;;;;;5056650;28;20042;-70
2023/09/12 11:44:47;;;;;;;6.25;3.22;;;29.50;75.10;;;;;;5045802;28;20021;-70
2023/09/12 11:47:13;;;;;;;4.30;2.97;;;29.50;76.00;;;;;;5049091;28;20037;-69
2023/09/12 11:49:40;;;;;;;3.97;2.63;;;29.50;75.10;;;;;;5045217;28;20540;-69
2023/09/12 11:52:14;;;;;;;4.35;2.80;;;29.60;74.30;;;;;;5040411;28;20040;-70
2023/09/12 11:54:41;;;;;;;4.82;2.78;;;29.60;73.30;;;;;;5045132;28;20044;-70
2023/09/12 11:57:08;;;;;;;6.43;2.67;;;29.60;72.10;;;;;;5029430;28;20029;-69
2023/09/12 11:59:40;;;;;;;4.72;2.50;;;29.60;71.80;;;;;;5045033;28;20055;-70
2023/09/12 12:02:08;;;;;;;4.95;1.98;;;29.60;71.30;;;;;;5035576;28;20186;-70
2023/09/12 12:04:34;;;;;;;4.63;2.33;;;29.70;71.70;;;;;;5045374;28;20049;-70
2023/09/12 12:07:04;;;;;;;3.70;2.45;;;29.70;71.10;;;;;;5045252;28;20538;-70
2023/09/12 12:09:30;;;;;;;3.85;2.65;;;29.80;71.30;;;;;;5049981;28;20472;-70
2023/09/12 12:12:00;;;;;;;7.88;3.45;;;29.90;71.60;;;;;;5045334;28;20835;-70
2023/09/12 12:14:26;;;;;;;7.45;3.08;;;29.90;71.20;;;;;;5045884;28;20477;-70
2023/09/12 12:16:52;;;;;;;6.90;3.10;;;29.90;71.50;;;;;;5044286;28;20477;-70
2023/09/12 12:19:18;;;;;;;6.75;3.80;;;29.90;71.50;;;;;;5035138;28;20029;-70
2023/09/12 12:21:44;;;;;;;5.80;3.60;;;29.80;72.20;;;;;;5044945;28;20611;-70
2023/09/12 12:24:13;;;;;;;4.32;3.15;;;29.80;71.30;;;;;;5044812;28;20048;-69
2023/09/12 12:26:42;;;;;;;6.65;3.25;;;29.80;71.80;;;;;;5047815;28;20115;-70
2023/09/12 12:29:09;;;;;;;8.30;3.38;;;29.80;72.20;;;;;;5044669;28;20045;-70
2023/09/12 12:31:36;;;;;;;4.40;3.28;;;29.70;72.00;;;;;;5056234;28;20036;-70
2023/09/12 12:34:03;;;;;;;10.23;3.58;;;29.70;72.80;;;;;;5048264;28;20037;-70
2023/09/12 12:36:29;;;;;;;6.47;3.42;;;29.70;72.00;;;;;;5044982;28;20494;-70
2023/09/12 12:38:55;;;;;;;7.35;3.50;;;29.60;72.20;;;;;;5044251;28;20017;-70
2023/09/12 12:41:28;;;;;;;8.02;3.78;;;29.60;72.50;;;;;;5045194;28;20056;-68